Time;durP1;ratioP1;P1;durP2;ratioP2;P2;SDS_P1;SDS_P2;PMS_P1;PMS_P2;Temp;Humidity;BMP_temperature;BMP_pressure;BME280_temperature;BME280_humidity;BME280_pressure;Samples;Min_cycle;Max_cycle;Signal;HPM_P1;HPM_P2
2021/03/17 00:04:25;;;;;;;21.38;19.85;;;;;;;;;;5076625;28;20650;-76
2021/03/17 00:06:54;;;;;;;21.52;19.83;;;;;;;;;;5076396;28;20192;-75
2021/03/17 00:09:21;;;;;;;21.17;19.75;;;;;;;;;;5076068;28;20660;-76
2021/03/17 00:11:49;;;;;;;21.60;20.10;;;;;;;;;;5058282;28;20203;-75
2021/03/17 00:14:19;;;;;;;22.00;20.17;;;;;;;;;;5075714;28;20232;-75
2021/03/17 00:16:46;;;;;;;21.08;19.60;;;;;;;;;;5076151;28;20184;-75
2021/03/17 00:19:14;;;;;;;22.45;20.80;;;;;;;;;;5076186;28;20193;-75
2021/03/17 00:21:43;;;;;;;23.20;20.95;;;;;;;;;;5077274;28;20212;-75
2021/03/17 00:24:11;;;;;;;29.35;24.20;;;;;;;;;;5077439;28;20199;-74
2021/03/17 00:26:38;;;;;;;21.38;19.95;;;;;;;;;;5078022;28;20205;-74
2021/03/17 00:29:05;;;;;;;21.92;20.42;;;;;;;;;;5077556;28;20192;-75
2021/03/17 00:31:34;;;;;;;22.42;20.55;;;;;;;;;;5079027;28;20282;-75
2021/03/17 00:34:01;;;;;;;21.35;19.80;;;;;;;;;;5075729;28;20230;-75
2021/03/17 00:36:29;;;;;;;21.45;19.95;;;;;;;;;;5075693;28;20200;-75
2021/03/17 00:39:00;;;;;;;20.35;18.95;;;;;;;;;;5075740;28;20192;-75
2021/03/17 00:41:42;;;;;;;21.70;19.95;;;;;;;;;;5075859;28;20263;-74
2021/03/17 00:44:12;;;;;;;21.38;19.75;;;;;;;;;;5074522;28;20201;-75
2021/03/17 00:46:40;;;;;;;20.50;19.20;;;;;;;;;;5075316;28;20243;-75
2021/03/17 00:49:08;;;;;;;21.73;20.30;;;;;;;;;;5075365;28;20579;-75
2021/03/17 00:51:34;;;;;;;29.40;23.77;;;;;;;;;;5075498;28;20238;-75
2021/03/17 00:54:02;;;;;;;20.50;19.10;;;;;;;;;;5075038;28;20193;-76
2021/03/17 00:56:28;;;;;;;21.52;20.02;;;;;;;;;;5075088;28;20207;-75
2021/03/17 00:58:55;;;;;;;22.83;20.80;;;;;;;;;;5074864;28;20183;-75
2021/03/17 01:01:22;;;;;;;20.70;19.30;;;;;;;;;;5075085;28;20215;-75
2021/03/17 01:03:51;;;;;;;20.38;18.90;;;;;;;;;;5074751;28;20291;-75
2021/03/17 01:06:18;;;;;;;21.88;20.15;;;;;;;;;;5074682;28;20188;-75
2021/03/17 01:08:45;;;;;;;21.25;19.73;;;;;;;;;;5074631;28;20201;-75
2021/03/17 01:11:12;;;;;;;23.35;21.30;;;;;;;;;;5074704;28;20184;-75
2021/03/17 01:13:44;;;;;;;20.08;18.50;;;;;;;;;;5073024;28;20636;-75
2021/03/17 01:16:12;;;;;;;20.75;19.08;;;;;;;;;;5072990;28;20290;-75
2021/03/17 01:18:39;;;;;;;21.65;19.55;;;;;;;;;;5074294;28;20209;-75
2021/03/17 01:21:07;;;;;;;21.20;19.48;;;;;;;;;;5072905;28;20232;-75
2021/03/17 01:23:34;;;;;;;20.38;19.00;;;;;;;;;;5074452;28;20552;-75
2021/03/17 01:26:01;;;;;;;20.88;19.30;;;;;;;;;;5056626;28;20290;-75
2021/03/17 01:28:28;;;;;;;20.38;18.88;;;;;;;;;;5074386;28;20237;-75
2021/03/17 01:30:58;;;;;;;20.67;19.23;;;;;;;;;;5074750;28;20565;-75
2021/03/17 01:33:27;;;;;;;21.40;19.35;;;;;;;;;;5074409;28;20701;-75
2021/03/17 01:35:56;;;;;;;21.25;19.50;;;;;;;;;;5074580;28;20642;-75
2021/03/17 01:38:26;;;;;;;21.33;19.75;;;;;;;;;;5074722;28;20209;-75
2021/03/17 01:40:55;;;;;;;20.92;19.52;;;;;;;;;;5072319;28;20227;-75
2021/03/17 01:43:23;;;;;;;21.60;20.02;;;;;;;;;;5074546;28;20197;-75
2021/03/17 01:45:50;;;;;;;20.33;18.90;;;;;;;;;;5074471;28;20269;-75
2021/03/17 01:48:17;;;;;;;20.35;19.00;;;;;;;;;;5074086;28;20192;-75
2021/03/17 01:50:46;;;;;;;21.13;19.48;;;;;;;;;;5074329;28;20188;-76
2021/03/17 01:53:14;;;;;;;21.13;19.48;;;;;;;;;;5074021;28;20252;-75
2021/03/17 01:55:42;;;;;;;20.98;19.50;;;;;;;;;;5073598;28;20276;-75
2021/03/17 01:58:30;;;;;;;20.85;19.35;;;;;;;;;;5074997;28;20196;-74
2021/03/17 02:01:06;;;;;;;21.00;19.67;;;;;;;;;;5077549;28;20367;-75
2021/03/17 02:03:33;;;;;;;21.67;19.83;;;;;;;;;;5073595;28;20195;-75
2021/03/17 02:06:00;;;;;;;21.20;19.58;;;;;;;;;;5073745;28;20653;-75
2021/03/17 02:08:29;;;;;;;21.50;19.90;;;;;;;;;;5073530;28;20197;-75
2021/03/17 02:10:57;;;;;;;21.30;19.27;;;;;;;;;;5073363;28;20199;-75
2021/03/17 02:13:46;;;;;;;21.05;19.55;;;;;;;;;;5073557;28;20184;-75
2021/03/17 02:16:18;;;;;;;20.65;19.10;;;;;;;;;;5070195;28;20565;-74
2021/03/17 02:18:55;;;;;;;24.35;22.05;;;;;;;;;;5073422;28;20549;-75
2021/03/17 02:21:31;;;;;;;20.58;19.08;;;;;;;;;;5073551;28;20222;-75
2021/03/17 02:24:03;;;;;;;20.35;18.85;;;;;;;;;;5073707;28;20214;-75
2021/03/17 02:26:56;;;;;;;20.73;19.23;;;;;;;;;;5073624;28;20196;-75
2021/03/17 02:29:44;;;;;;;21.27;19.10;;;;;;;;;;5073699;28;20188;-75
2021/03/17 02:32:15;;;;;;;24.60;22.75;;;;;;;;;;5069665;28;20226;-75
2021/03/17 02:34:44;;;;;;;20.23;18.50;;;;;;;;;;5073089;28;20185;-75
2021/03/17 02:37:13;;;;;;;21.75;19.80;;;;;;;;;;5072190;28;20246;-75
2021/03/17 02:39:41;;;;;;;20.77;18.90;;;;;;;;;;5073433;28;20192;-75
2021/03/17 02:42:12;;;;;;;21.20;19.60;;;;;;;;;;5073391;28;20193;-75
2021/03/17 02:44:45;;;;;;;20.38;19.20;;;;;;;;;;5072933;28;20192;-75
2021/03/17 02:47:12;;;;;;;21.42;19.67;;;;;;;;;;5073605;28;20184;-75
2021/03/17 02:49:41;;;;;;;21.38;19.52;;;;;;;;;;5073217;28;20265;-75
2021/03/17 02:52:10;;;;;;;24.70;22.42;;;;;;;;;;5074849;28;20193;-75
2021/03/17 02:54:37;;;;;;;20.35;19.10;;;;;;;;;;5078654;28;20203;-75
2021/03/17 02:57:08;;;;;;;21.25;19.55;;;;;;;;;;5077434;28;20232;-75
2021/03/17 02:59:35;;;;;;;20.55;18.63;;;;;;;;;;5077263;28;20198;-75
2021/03/17 03:02:03;;;;;;;20.80;19.10;;;;;;;;;;5077167;28;20216;-75
2021/03/17 03:04:30;;;;;;;20.00;18.65;;;;;;;;;;5077033;28;20192;-75
2021/03/17 03:06:58;;;;;;;21.20;19.42;;;;;;;;;;5076570;28;20707;-75
2021/03/17 03:09:27;;;;;;;21.40;19.80;;;;;;;;;;5076745;28;20199;-75
2021/03/17 03:11:55;;;;;;;21.88;20.02;;;;;;;;;;5076892;28;20546;-75
2021/03/17 03:14:22;;;;;;;21.67;20.00;;;;;;;;;;5076604;28;20235;-74
2021/03/17 03:16:49;;;;;;;21.73;20.13;;;;;;;;;;5076626;28;20545;-75
2021/03/17 03:19:17;;;;;;;20.83;19.30;;;;;;;;;;5076811;28;20189;-75
2021/03/17 03:21:44;;;;;;;21.98;20.27;;;;;;;;;;5076808;28;20225;-75
2021/03/17 03:24:12;;;;;;;21.65;20.00;;;;;;;;;;5076841;28;20201;-75
2021/03/17 03:26:40;;;;;;;21.35;19.58;;;;;;;;;;5076691;28;20189;-75
2021/03/17 03:29:08;;;;;;;21.95;20.45;;;;;;;;;;5077941;28;20631;-75
2021/03/17 03:31:35;;;;;;;21.35;19.58;;;;;;;;;;5076041;28;20220;-74
2021/03/17 03:34:02;;;;;;;21.48;19.48;;;;;;;;;;5076484;28;20193;-75
2021/03/17 03:36:29;;;;;;;21.17;19.50;;;;;;;;;;5076371;28;20634;-75
2021/03/17 03:38:58;;;;;;;22.35;20.70;;;;;;;;;;5076293;28;20195;-75
2021/03/17 03:41:25;;;;;;;74.15;41.05;;;;;;;;;;5075967;28;20221;-75
2021/03/17 03:43:53;;;;;;;22.52;20.27;;;;;;;;;;5076183;28;20599;-75
2021/03/17 03:46:20;;;;;;;22.10;20.00;;;;;;;;;;5076160;28;20578;-75
2021/03/17 03:48:47;;;;;;;22.10;20.50;;;;;;;;;;5076358;28;20195;-75
2021/03/17 03:51:14;;;;;;;21.90;20.50;;;;;;;;;;5074645;28;20204;-75
2021/03/17 03:53:46;;;;;;;22.30;20.20;;;;;;;;;;5076286;28;20216;-75
2021/03/17 03:56:15;;;;;;;22.33;20.58;;;;;;;;;;5076013;28;20212;-75
2021/03/17 03:58:45;;;;;;;23.27;21.30;;;;;;;;;;5076118;28;20185;-75
2021/03/17 04:01:15;;;;;;;22.02;20.30;;;;;;;;;;5074583;28;20222;-75
2021/03/17 04:03:43;;;;;;;22.50;21.00;;;;;;;;;;5075264;28;20188;-75
2021/03/17 04:06:11;;;;;;;70.05;36.85;;;;;;;;;;5075481;28;20610;-74
2021/03/17 04:08:38;;;;;;;22.80;20.63;;;;;;;;;;5075411;28;20260;-75
2021/03/17 04:11:07;;;;;;;22.88;21.13;;;;;;;;;;5074765;28;20200;-75
2021/03/17 04:13:34;;;;;;;22.30;20.73;;;;;;;;;;5076288;28;20194;-75
2021/03/17 04:16:01;;;;;;;22.83;20.77;;;;;;;;;;5075385;28;20194;-75
2021/03/17 04:18:31;;;;;;;22.98;21.08;;;;;;;;;;5075837;28;20188;-75
2021/03/17 04:21:01;;;;;;;22.65;21.05;;;;;;;;;;5075205;28;20242;-75
2021/03/17 04:23:29;;;;;;;22.77;21.10;;;;;;;;;;5074085;28;20204;-75
2021/03/17 04:25:56;;;;;;;21.55;20.15;;;;;;;;;;5075394;28;20203;-75
2021/03/17 04:28:24;;;;;;;22.35;20.67;;;;;;;;;;5075488;28;20198;-75
2021/03/17 04:30:52;;;;;;;23.17;21.25;;;;;;;;;;5075457;28;20224;-75
2021/03/17 04:33:20;;;;;;;21.80;20.30;;;;;;;;;;5075390;28;20618;-75
2021/03/17 04:35:48;;;;;;;22.02;19.83;;;;;;;;;;5075712;28;20203;-75
2021/03/17 04:38:15;;;;;;;21.40;19.70;;;;;;;;;;5074213;28;20682;-75
2021/03/17 04:40:43;;;;;;;21.70;20.13;;;;;;;;;;5075081;28;20278;-75
2021/03/17 04:43:11;;;;;;;21.92;19.88;;;;;;;;;;5075125;28;20266;-75
2021/03/17 04:45:38;;;;;;;20.52;19.00;;;;;;;;;;5074982;28;20193;-75
2021/03/17 04:48:06;;;;;;;20.15;18.95;;;;;;;;;;5074978;28;20710;-75
2021/03/17 04:50:33;;;;;;;21.88;20.02;;;;;;;;;;5075018;28;20205;-75
2021/03/17 04:53:02;;;;;;;22.30;20.00;;;;;;;;;;5074861;28;20218;-74
2021/03/17 04:55:29;;;;;;;20.90;19.10;;;;;;;;;;5074785;28;20188;-75
2021/03/17 04:57:58;;;;;;;19.42;18.13;;;;;;;;;;5074805;28;20197;-75
2021/03/17 05:00:25;;;;;;;20.27;18.88;;;;;;;;;;5075025;28;20211;-75
2021/03/17 05:02:54;;;;;;;19.17;17.88;;;;;;;;;;5074628;28;20196;-75
2021/03/17 05:05:21;;;;;;;20.20;18.80;;;;;;;;;;5074901;28;20193;-75
2021/03/17 05:07:48;;;;;;;20.00;18.70;;;;;;;;;;5074838;28;20189;-75
2021/03/17 05:10:17;;;;;;;20.63;18.95;;;;;;;;;;5074970;28;20200;-75
2021/03/17 05:12:44;;;;;;;19.65;18.45;;;;;;;;;;5074981;28;20192;-75
2021/03/17 05:15:11;;;;;;;19.38;18.10;;;;;;;;;;5074421;28;20224;-75
2021/03/17 05:17:39;;;;;;;20.20;18.90;;;;;;;;;;5074817;28;20197;-75
2021/03/17 05:20:16;;;;;;;19.80;18.10;;;;;;;;;;5073522;28;20227;-75
2021/03/17 05:22:43;;;;;;;27.40;24.55;;;;;;;;;;5074306;28;20199;-75
2021/03/17 05:25:11;;;;;;;19.40;18.05;;;;;;;;;;5074808;28;20196;-75
2021/03/17 05:27:40;;;;;;;19.27;17.98;;;;;;;;;;5074449;28;20203;-75
2021/03/17 05:30:08;;;;;;;19.00;17.90;;;;;;;;;;5074374;28;20207;-75
2021/03/17 05:32:35;;;;;;;19.50;18.40;;;;;;;;;;5074274;28;20201;-74
2021/03/17 05:35:02;;;;;;;20.25;18.70;;;;;;;;;;5074349;28;20188;-74
2021/03/17 05:37:29;;;;;;;19.23;18.02;;;;;;;;;;5072876;28;20557;-74
2021/03/17 05:39:56;;;;;;;20.00;18.27;;;;;;;;;;5074075;28;20246;-74
2021/03/17 05:42:23;;;;;;;19.25;18.15;;;;;;;;;;5073735;28;20192;-74
2021/03/17 05:44:52;;;;;;;20.60;19.10;;;;;;;;;;5073689;28;20192;-74
2021/03/17 05:47:20;;;;;;;20.58;19.27;;;;;;;;;;5074011;28;20195;-74
2021/03/17 05:49:47;;;;;;;20.50;19.20;;;;;;;;;;5073532;28;20639;-74
2021/03/17 05:52:15;;;;;;;20.58;18.95;;;;;;;;;;5073937;28;20261;-74
2021/03/17 05:54:43;;;;;;;20.45;19.13;;;;;;;;;;5073454;28;20659;-74
2021/03/17 05:57:10;;;;;;;21.13;19.63;;;;;;;;;;5073626;28;20286;-75
2021/03/17 05:59:38;;;;;;;21.17;19.55;;;;;;;;;;5073555;28;20666;-73
2021/03/17 06:02:07;;;;;;;20.83;18.98;;;;;;;;;;5073577;28;20240;-74
2021/03/17 06:04:34;;;;;;;19.42;18.23;;;;;;;;;;5073737;28;20205;-74
2021/03/17 06:07:04;;;;;;;21.67;19.60;;;;;;;;;;5072428;28;20204;-73
2021/03/17 06:09:31;;;;;;;20.05;18.70;;;;;;;;;;5073577;28;20196;-75
2021/03/17 06:12:00;;;;;;;20.67;19.10;;;;;;;;;;5072942;28;20550;-74
2021/03/17 06:14:28;;;;;;;20.08;18.40;;;;;;;;;;5073542;28;20231;-74
2021/03/17 06:16:58;;;;;;;19.55;18.02;;;;;;;;;;5074394;28;20200;-74
2021/03/17 06:19:29;;;;;;;19.80;18.60;;;;;;;;;;5074270;28;20196;-74
2021/03/17 06:21:57;;;;;;;43.10;38.47;;;;;;;;;;5074909;28;20219;-74
2021/03/17 06:24:24;;;;;;;59.70;40.40;;;;;;;;;;5073587;28;20224;-74
2021/03/17 06:26:51;;;;;;;71.40;36.58;;;;;;;;;;5073697;28;20188;-74
2021/03/17 06:29:18;;;;;;;22.13;19.73;;;;;;;;;;5073576;28;20662;-73
2021/03/17 06:31:46;;;;;;;20.27;18.77;;;;;;;;;;5073757;28;20258;-74
2021/03/17 06:34:13;;;;;;;18.98;17.85;;;;;;;;;;5072488;28;20550;-74
2021/03/17 06:36:49;;;;;;;19.98;18.67;;;;;;;;;;5074605;28;20244;-74
2021/03/17 06:39:16;;;;;;;20.05;18.55;;;;;;;;;;5073977;28;20626;-73
2021/03/17 06:41:49;;;;;;;19.35;18.00;;;;;;;;;;5072775;28;20227;-74
2021/03/17 06:44:20;;;;;;;20.10;18.90;;;;;;;;;;5075427;28;20291;-72
2021/03/17 06:47:10;;;;;;;22.90;21.27;;;;;;;;;;5074186;28;20193;-74
2021/03/17 06:49:40;;;;;;;21.10;19.48;;;;;;;;;;5074268;28;20185;-73
2021/03/17 06:52:21;;;;;;;22.55;20.90;;;;;;;;;;5074090;28;20203;-74
2021/03/17 06:57:43;;;;;;;21.27;19.67;;;;;;;;;;5111423;27;20543;-73
2021/03/17 07:00:21;;;;;;;21.40;19.50;;;;;;;;;;5111490;28;20201;-73
2021/03/17 07:02:51;;;;;;;20.52;19.13;;;;;;;;;;5111484;28;20191;-75
2021/03/17 07:05:19;;;;;;;20.70;19.60;;;;;;;;;;5111271;28;20197;-75
2021/03/17 07:07:49;;;;;;;20.95;19.60;;;;;;;;;;5111153;28;20188;-72
2021/03/17 07:10:28;;;;;;;20.45;19.05;;;;;;;;;;5111311;28;20633;-72
2021/03/17 07:12:57;;;;;;;21.55;19.80;;;;;;;;;;5111485;28;20240;-72
2021/03/17 07:15:25;;;;;;;20.88;19.38;;;;;;;;;;5111042;28;20188;-72
2021/03/17 07:17:53;;;;;;;22.25;20.20;;;;;;;;;;5111297;28;20185;-73
2021/03/17 07:20:37;;;;;;;21.63;20.10;;;;;;;;;;5111013;28;20186;-73
2021/03/17 07:23:22;;;;;;;21.77;20.10;;;;;;;;;;5110921;28;20552;-72
2021/03/17 07:26:08;;;;;;;20.67;19.27;;;;;;;;;;5110791;28;20645;-73
2021/03/17 07:28:49;;;;;;;21.02;19.15;;;;;;;;;;5110885;28;20213;-73
2021/03/17 07:31:18;;;;;;;21.25;19.90;;;;;;;;;;5110871;28;20225;-73
2021/03/17 07:33:45;;;;;;;21.85;20.35;;;;;;;;;;5110691;28;20540;-72
2021/03/17 07:36:13;;;;;;;21.42;19.80;;;;;;;;;;5111102;28;20227;-72
2021/03/17 07:38:40;;;;;;;21.92;20.10;;;;;;;;;;5111345;28;20544;-72
2021/03/17 07:41:07;;;;;;;20.23;18.83;;;;;;;;;;5110699;28;20193;-73
2021/03/17 07:43:36;;;;;;;21.60;20.05;;;;;;;;;;5110322;28;20199;-72
2021/03/17 07:46:03;;;;;;;21.83;20.33;;;;;;;;;;5110564;28;20640;-72
2021/03/17 07:48:31;;;;;;;21.67;20.17;;;;;;;;;;5110875;28;20202;-72
2021/03/17 07:50:58;;;;;;;21.63;19.77;;;;;;;;;;5110504;28;20199;-73
2021/03/17 07:53:25;;;;;;;22.25;20.90;;;;;;;;;;5110805;28;20187;-72
2021/03/17 07:55:56;;;;;;;21.75;20.05;;;;;;;;;;5110711;28;20291;-72
2021/03/17 07:58:23;;;;;;;21.25;19.90;;;;;;;;;;5101056;28;20199;-73
2021/03/17 08:00:50;;;;;;;21.38;19.88;;;;;;;;;;5101220;28;20218;-71
2021/03/17 08:03:17;;;;;;;20.63;19.33;;;;;;;;;;5098896;28;20280;-72
2021/03/17 08:05:45;;;;;;;21.17;19.58;;;;;;;;;;5098595;28;20188;-72
2021/03/17 08:08:13;;;;;;;21.50;20.00;;;;;;;;;;5086089;28;20184;-72
2021/03/17 08:10:41;;;;;;;25.60;23.00;;;;;;;;;;5075246;28;20193;-72
2021/03/17 08:13:08;;;;;;;20.45;19.05;;;;;;;;;;5075986;28;20704;-72
2021/03/17 08:15:36;;;;;;;20.42;19.02;;;;;;;;;;5075923;28;20668;-73
2021/03/17 08:18:03;;;;;;;21.02;19.55;;;;;;;;;;5076254;28;20204;-74
2021/03/17 08:20:30;;;;;;;21.40;19.42;;;;;;;;;;5075010;28;20630;-73
2021/03/17 08:22:59;;;;;;;21.48;19.83;;;;;;;;;;5076617;28;20205;-73
2021/03/17 08:25:36;;;;;;;22.88;21.25;;;;;;;;;;5075817;28;20592;-73
2021/03/17 08:28:16;;;;;;;21.58;20.10;;;;;;;;;;5075734;28;20651;-72
2021/03/17 08:30:43;;;;;;;20.73;19.33;;;;;;;;;;5075716;28;20224;-75
2021/03/17 08:33:10;;;;;;;20.50;19.10;;;;;;;;;;5076191;28;20245;-74
2021/03/17 08:35:55;;;;;;;21.17;19.77;;;;;;;;;;5075708;28;20608;-74
2021/03/17 08:38:23;;;;;;;22.77;21.58;;;;;;;;;;5076339;28;20192;-73
2021/03/17 08:40:50;;;;;;;22.70;21.30;;;;;;;;;;5075993;28;20543;-73
2021/03/17 08:43:35;;;;;;;22.50;20.35;;;;;;;;;;5076361;28;20204;-73
2021/03/17 08:46:08;;;;;;;21.40;19.90;;;;;;;;;;5066102;28;20208;-73
2021/03/17 08:48:53;;;;;;;21.65;20.25;;;;;;;;;;5074507;28;20196;-73
2021/03/17 08:51:42;;;;;;;23.30;21.50;;;;;;;;;;5075468;28;20212;-71
2021/03/17 08:54:23;;;;;;;21.00;19.70;;;;;;;;;;5075479;28;20562;-72
2021/03/17 08:56:51;;;;;;;21.73;20.42;;;;;;;;;;5074638;28;20690;-73
2021/03/17 08:59:19;;;;;;;22.45;20.88;;;;;;;;;;5075591;28;20245;-73
2021/03/17 09:01:46;;;;;;;22.10;20.63;;;;;;;;;;5075436;28;20264;-73
2021/03/17 09:04:40;;;;;;;20.70;19.50;;;;;;;;;;5075485;28;20254;-73
2021/03/17 09:07:07;;;;;;;22.10;20.60;;;;;;;;;;5074985;28;20204;-73
2021/03/17 09:09:45;;;;;;;22.40;21.00;;;;;;;;;;5075373;28;20185;-73
2021/03/17 09:12:13;;;;;;;23.13;21.63;;;;;;;;;;5075313;28;20595;-73
2021/03/17 09:14:40;;;;;;;22.55;20.80;;;;;;;;;;5074088;28;20263;-73
2021/03/17 09:17:28;;;;;;;21.92;20.50;;;;;;;;;;5078558;28;20713;-72
2021/03/17 09:19:59;;;;;;;22.95;21.20;;;;;;;;;;5074176;28;20190;-73
2021/03/17 09:22:37;;;;;;;23.15;20.92;;;;;;;;;;5075118;28;20272;-73
2021/03/17 09:25:14;;;;;;;21.75;20.35;;;;;;;;;;5074717;28;20673;-73
2021/03/17 09:27:47;;;;;;;21.65;19.95;;;;;;;;;;5074556;28;20243;-73
2021/03/17 09:30:15;;;;;;;22.70;21.08;;;;;;;;;;5074359;28;20262;-73
2021/03/17 09:32:42;;;;;;;21.90;20.60;;;;;;;;;;5074568;28;20186;-73
2021/03/17 09:35:09;;;;;;;22.38;20.85;;;;;;;;;;5074599;28;20713;-73
2021/03/17 09:37:36;;;;;;;23.17;21.50;;;;;;;;;;5074533;28;20216;-73
2021/03/17 09:40:05;;;;;;;23.38;21.75;;;;;;;;;;5073316;28;20196;-73
2021/03/17 09:42:35;;;;;;;22.90;21.30;;;;;;;;;;5074476;28;20191;-73
2021/03/17 09:45:03;;;;;;;22.73;21.30;;;;;;;;;;5074644;28;20196;-73
2021/03/17 09:47:31;;;;;;;23.98;22.05;;;;;;;;;;5074764;28;20198;-73
2021/03/17 09:49:58;;;;;;;22.95;21.55;;;;;;;;;;5074373;28;20185;-73
2021/03/17 09:52:25;;;;;;;22.23;20.83;;;;;;;;;;5073389;28;20213;-72
2021/03/17 09:54:52;;;;;;;22.10;20.38;;;;;;;;;;5074549;28;20580;-73
2021/03/17 09:57:19;;;;;;;22.30;20.80;;;;;;;;;;5073818;28;20249;-73
2021/03/17 09:59:47;;;;;;;22.98;21.30;;;;;;;;;;5074392;28;20197;-73
2021/03/17 10:02:17;;;;;;;22.88;21.25;;;;;;;;;;5074443;28;20197;-74
2021/03/17 10:04:46;;;;;;;23.23;21.45;;;;;;;;;;5073968;28;20283;-73
2021/03/17 10:07:14;;;;;;;22.52;21.08;;;;;;;;;;5072758;28;20209;-74
2021/03/17 10:09:42;;;;;;;22.58;20.98;;;;;;;;;;5073969;28;20188;-74
2021/03/17 10:12:10;;;;;;;23.05;21.08;;;;;;;;;;5074225;28;20201;-73
2021/03/17 10:14:38;;;;;;;22.13;20.40;;;;;;;;;;5073733;28;20191;-73
2021/03/17 10:17:06;;;;;;;22.00;20.50;;;;;;;;;;5072587;28;20225;-73
2021/03/17 10:19:35;;;;;;;22.88;21.30;;;;;;;;;;5074306;28;20198;-74
2021/03/17 10:22:02;;;;;;;23.92;22.13;;;;;;;;;;5073854;28;20247;-73
2021/03/17 10:24:39;;;;;;;22.80;21.15;;;;;;;;;;5073989;28;20194;-73
2021/03/17 10:27:07;;;;;;;24.38;22.50;;;;;;;;;;5073681;28;20603;-73
2021/03/17 10:29:34;;;;;;;24.80;22.40;;;;;;;;;;5074341;28;20201;-72
2021/03/17 10:32:03;;;;;;;22.45;21.08;;;;;;;;;;5073636;28;20186;-73
2021/03/17 10:34:30;;;;;;;22.88;21.10;;;;;;;;;;5074036;28;20191;-75
2021/03/17 10:36:58;;;;;;;23.23;21.50;;;;;;;;;;5073837;28;20231;-73
2021/03/17 10:39:26;;;;;;;24.48;21.98;;;;;;;;;;5073920;28;20196;-73
2021/03/17 10:41:53;;;;;;;22.35;20.95;;;;;;;;;;5073940;28;20538;-73
2021/03/17 10:44:24;;;;;;;23.20;21.65;;;;;;;;;;5073498;28;20190;-73
2021/03/17 10:47:11;;;;;;;23.85;22.20;;;;;;;;;;5073835;28;20210;-73
2021/03/17 10:49:39;;;;;;;23.85;22.10;;;;;;;;;;5069039;28;20214;-78
2021/03/17 10:52:06;;;;;;;23.13;21.55;;;;;;;;;;5073961;28;20203;-73
2021/03/17 10:54:34;;;;;;;24.10;22.40;;;;;;;;;;5073800;28;20193;-73
2021/03/17 10:57:02;;;;;;;23.98;22.58;;;;;;;;;;5072010;28;20737;-74
2021/03/17 10:59:29;;;;;;;23.02;21.45;;;;;;;;;;5073876;28;20193;-73
2021/03/17 11:02:15;;;;;;;23.02;21.63;;;;;;;;;;5073731;28;20191;-73
2021/03/17 11:04:57;;;;;;;23.45;21.92;;;;;;;;;;5073436;28;20658;-73
2021/03/17 11:07:25;;;;;;;23.95;22.25;;;;;;;;;;5073108;28;20263;-73
2021/03/17 11:09:52;;;;;;;25.27;23.42;;;;;;;;;;5072382;28;20573;-73
2021/03/17 11:12:19;;;;;;;24.23;22.63;;;;;;;;;;5074511;28;20588;-73
2021/03/17 11:14:46;;;;;;;25.23;23.50;;;;;;;;;;5074338;28;20460;-73
2021/03/17 11:17:13;;;;;;;25.67;23.60;;;;;;;;;;5072678;28;20236;-73
2021/03/17 11:19:40;;;;;;;25.00;23.10;;;;;;;;;;5073873;28;20550;-73
2021/03/17 11:22:07;;;;;;;24.20;22.65;;;;;;;;;;5073565;28;20445;-73
2021/03/17 11:24:35;;;;;;;23.83;22.35;;;;;;;;;;5073536;28;20596;-74
2021/03/17 11:27:02;;;;;;;23.23;21.48;;;;;;;;;;5073357;28;20185;-74
2021/03/17 11:29:30;;;;;;;23.10;21.20;;;;;;;;;;5071537;28;20241;-73
2021/03/17 11:32:06;;;;;;;23.67;21.98;;;;;;;;;;5073028;28;20187;-74
2021/03/17 11:34:33;;;;;;;23.83;22.30;;;;;;;;;;5073000;28;20238;-73
2021/03/17 11:37:00;;;;;;;23.33;21.83;;;;;;;;;;5073257;28;20270;-73
2021/03/17 11:39:27;;;;;;;24.70;23.20;;;;;;;;;;5073207;28;20207;-73
2021/03/17 11:41:55;;;;;;;24.25;22.63;;;;;;;;;;5074129;28;20456;-73
2021/03/17 11:44:22;;;;;;;24.55;22.95;;;;;;;;;;5076701;28;20193;-73
2021/03/17 11:46:50;;;;;;;22.55;21.00;;;;;;;;;;5077879;28;20191;-74
2021/03/17 11:49:18;;;;;;;23.85;21.70;;;;;;;;;;5076844;28;20191;-74
2021/03/17 11:51:46;;;;;;;23.75;22.33;;;;;;;;;;5077270;28;20190;-74
2021/03/17 11:54:13;;;;;;;23.27;21.35;;;;;;;;;;5077093;28;20192;-74
2021/03/17 11:56:40;;;;;;;23.58;21.80;;;;;;;;;;5076628;28;20243;-74
2021/03/17 11:59:08;;;;;;;23.33;21.83;;;;;;;;;;5077264;28;20281;-74
2021/03/17 12:01:35;;;;;;;23.98;22.38;;;;;;;;;;5076991;28;20551;-75
2021/03/17 12:04:02;;;;;;;22.85;21.45;;;;;;;;;;5077239;28;20192;-74
2021/03/17 12:06:29;;;;;;;23.95;22.20;;;;;;;;;;5076519;28;20199;-76
2021/03/17 12:08:56;;;;;;;24.95;22.98;;;;;;;;;;5078305;28;20224;-77
2021/03/17 12:11:25;;;;;;;23.85;22.15;;;;;;;;;;5082278;28;20211;-75
2021/03/17 12:13:53;;;;;;;23.75;22.10;;;;;;;;;;5078387;28;20237;-75
2021/03/17 12:16:21;;;;;;;23.70;21.88;;;;;;;;;;5078857;28;20221;-77
2021/03/17 12:18:50;;;;;;;23.75;22.05;;;;;;;;;;5079805;28;20602;-79
2021/03/17 12:21:24;;;;;;;23.13;21.65;;;;;;;;;;5078319;28;20303;-74
2021/03/17 12:23:51;;;;;;;24.15;22.30;;;;;;;;;;5077391;28;20643;-75
2021/03/17 12:26:21;;;;;;;22.65;21.15;;;;;;;;;;5078938;28;20296;-74
2021/03/17 12:28:48;;;;;;;23.15;21.65;;;;;;;;;;5079207;28;20206;-75
2021/03/17 12:31:15;;;;;;;24.80;22.35;;;;;;;;;;5077004;28;20234;-74
2021/03/17 12:33:43;;;;;;;22.65;21.25;;;;;;;;;;5076827;28;20708;-75
2021/03/17 12:36:10;;;;;;;23.92;22.23;;;;;;;;;;5077224;28;20224;-77
2021/03/17 12:38:40;;;;;;;23.30;21.70;;;;;;;;;;5079292;28;20259;-75
2021/03/17 12:41:06;;;;;;;24.27;22.40;;;;;;;;;;5079370;28;20205;-76
2021/03/17 12:43:33;;;;;;;22.08;20.63;;;;;;;;;;5078090;28;20690;-76
2021/03/17 12:46:00;;;;;;;23.98;22.00;;;;;;;;;;5076185;28;20186;-76
2021/03/17 12:48:27;;;;;;;24.95;23.25;;;;;;;;;;5078272;28;20223;-80
2021/03/17 12:50:55;;;;;;;23.77;22.08;;;;;;;;;;5076598;28;20573;-75
2021/03/17 12:53:25;;;;;;;23.63;21.80;;;;;;;;;;5075789;28;20192;-75
2021/03/17 12:55:53;;;;;;;22.92;21.23;;;;;;;;;;5075886;28;20693;-79
2021/03/17 12:58:20;;;;;;;23.85;21.77;;;;;;;;;;5079652;28;20190;-86
2021/03/17 13:00:48;;;;;;;23.88;22.35;;;;;;;;;;5081799;28;20275;-80
2021/03/17 13:03:14;;;;;;;23.02;21.42;;;;;;;;;;5081011;28;20226;-80
2021/03/17 13:05:41;;;;;;;22.67;21.08;;;;;;;;;;5080416;28;20199;-79
2021/03/17 13:08:09;;;;;;;22.70;21.05;;;;;;;;;;5075509;28;20211;-80
2021/03/17 13:10:36;;;;;;;23.88;21.83;;;;;;;;;;5078634;28;20660;-83
2021/03/17 13:13:03;;;;;;;23.98;22.13;;;;;;;;;;5078137;28;20195;-80
2021/03/17 13:15:30;;;;;;;22.23;20.73;;;;;;;;;;5078928;28;20192;-82
2021/03/17 13:17:57;;;;;;;22.35;21.00;;;;;;;;;;5078586;28;20575;-75
2021/03/17 13:20:25;;;;;;;23.60;22.20;;;;;;;;;;5076891;28;20198;-75
2021/03/17 13:22:52;;;;;;;23.10;21.70;;;;;;;;;;5075900;28;20208;-75
2021/03/17 13:25:20;;;;;;;23.47;21.87;;;;;;;;;;5075879;28;20566;-76
2021/03/17 13:27:48;;;;;;;23.38;21.80;;;;;;;;;;5075413;28;20462;-75
2021/03/17 13:30:15;;;;;;;23.10;21.40;;;;;;;;;;5075901;28;20583;-75
2021/03/17 13:32:42;;;;;;;22.77;21.27;;;;;;;;;;5075462;28;20191;-76
2021/03/17 13:35:10;;;;;;;24.23;22.53;;;;;;;;;;5075670;28;20432;-76
2021/03/17 13:37:37;;;;;;;23.73;22.02;;;;;;;;;;5075979;28;20492;-75
2021/03/17 13:40:04;;;;;;;23.25;21.50;;;;;;;;;;5074821;28;20208;-75
2021/03/17 13:42:32;;;;;;;23.67;21.77;;;;;;;;;;5075133;28;20196;-76
2021/03/17 13:44:59;;;;;;;23.33;21.73;;;;;;;;;;5076502;28;20639;-76
2021/03/17 13:47:26;;;;;;;23.37;21.77;;;;;;;;;;5075511;28;20444;-76
2021/03/17 13:49:53;;;;;;;24.13;22.33;;;;;;;;;;5076477;28;20453;-76
2021/03/17 13:52:20;;;;;;;23.20;21.60;;;;;;;;;;5078580;28;20438;-76
2021/03/17 13:54:47;;;;;;;24.53;23.03;;;;;;;;;;5080696;28;20236;-76
2021/03/17 13:57:15;;;;;;;24.47;22.87;;;;;;;;;;5079083;28;20863;-76
2021/03/17 13:59:43;;;;;;;24.83;23.10;;;;;;;;;;5078561;28;20528;-77
2021/03/17 14:02:12;;;;;;;24.30;22.70;;;;;;;;;;5078754;28;20825;-77
2021/03/17 14:04:40;;;;;;;68.97;61.85;;;;;;;;;;5079993;28;20213;-78
2021/03/17 14:07:09;;;;;;;23.83;22.33;;;;;;;;;;5078785;28;20187;-78
2021/03/17 14:09:36;;;;;;;24.30;22.60;;;;;;;;;;5076715;28;20431;-77
2021/03/17 14:12:03;;;;;;;25.03;23.50;;;;;;;;;;5079550;28;20445;-79
2021/03/17 14:14:30;;;;;;;24.05;22.45;;;;;;;;;;5076830;28;20431;-77
2021/03/17 14:16:58;;;;;;;24.45;22.30;;;;;;;;;;5076211;28;20219;-77
2021/03/17 14:19:25;;;;;;;23.85;22.25;;;;;;;;;;5074712;28;20186;-75
2021/03/17 14:21:52;;;;;;;23.38;21.98;;;;;;;;;;5075046;28;20213;-76
2021/03/17 14:24:19;;;;;;;24.20;22.38;;;;;;;;;;5074425;28;20214;-78
2021/03/17 14:26:46;;;;;;;24.10;22.30;;;;;;;;;;5074586;28;20206;-77
2021/03/17 14:29:13;;;;;;;26.05;23.65;;;;;;;;;;5074811;28;20469;-75
2021/03/17 14:31:41;;;;;;;24.50;22.60;;;;;;;;;;5075065;28;20205;-75
2021/03/17 14:34:09;;;;;;;23.50;21.90;;;;;;;;;;5074063;28;20187;-75